createdAt,value
2024-02-09T00:01:15.640Z,21.26
2024-02-09T00:03:42.949Z,21.24
2024-02-09T00:06:09.676Z,21.23
2024-02-09T00:08:38.476Z,21.22
2024-02-09T00:11:08.687Z,21.20
2024-02-09T00:13:35.455Z,21.19
2024-02-09T00:16:06.020Z,21.17
2024-02-09T00:18:32.927Z,21.17
2024-02-09T00:20:59.699Z,21.15
2024-02-09T00:23:26.384Z,21.15
2024-02-09T00:25:53.186Z,21.15
2024-02-09T00:28:20.063Z,21.13
2024-02-09T00:30:46.829Z,21.12
2024-02-09T00:33:13.711Z,21.09
2024-02-09T00:35:43.700Z,21.09
2024-02-09T00:38:11.172Z,21.08
2024-02-09T00:40:38.225Z,21.08
2024-02-09T00:43:05.213Z,21.05
2024-02-09T00:45:34.994Z,21.05
2024-02-09T00:48:01.850Z,21.04
2024-02-09T00:50:32.066Z,21.03
2024-02-09T00:53:11.919Z,21.02
2024-02-09T00:55:39.056Z,21.02
2024-02-09T00:58:05.829Z,21.00
2024-02-09T01:00:33.226Z,20.99
2024-02-09T01:03:00.641Z,20.97
2024-02-09T01:05:27.352Z,20.95
2024-02-09T01:07:54.013Z,20.94
2024-02-09T01:10:20.722Z,20.93
2024-02-09T01:13:06.187Z,20.93
2024-02-09T01:15:51.726Z,20.91
2024-02-09T01:18:37.406Z,20.91
2024-02-09T01:21:22.736Z,20.89
2024-02-09T01:24:08.295Z,20.89
2024-02-09T01:26:53.435Z,20.87
2024-02-09T01:29:38.463Z,20.86
2024-02-09T01:32:23.637Z,20.87
2024-02-09T01:35:11.218Z,20.85
2024-02-09T01:37:56.529Z,20.85
2024-02-09T01:40:41.723Z,20.83
2024-02-09T01:43:27.065Z,20.82
2024-02-09T01:46:12.778Z,20.80
2024-02-09T01:49:01.242Z,20.79
2024-02-09T01:51:47.155Z,20.80
2024-02-09T01:54:32.512Z,20.78
2024-02-09T01:57:17.814Z,20.77
2024-02-09T02:00:06.076Z,20.76
2024-02-09T02:02:51.390Z,20.76
2024-02-09T02:05:36.669Z,20.75
2024-02-09T02:08:21.956Z,20.73
2024-02-09T02:11:07.421Z,20.73
2024-02-09T02:13:53.094Z,20.71
2024-02-09T02:16:38.732Z,20.71
2024-02-09T02:19:24.165Z,20.68
2024-02-09T02:22:18.697Z,20.68
2024-02-09T02:25:04.449Z,20.68
2024-02-09T02:27:58.938Z,20.67
2024-02-09T02:30:44.402Z,20.67
2024-02-09T02:33:29.958Z,20.65
2024-02-09T02:36:15.589Z,20.65
2024-02-09T02:39:00.758Z,20.64
2024-02-09T02:41:27.352Z,20.62
2024-02-09T02:43:54.015Z,20.62
2024-02-09T02:46:20.861Z,20.60
2024-02-09T02:49:06.723Z,20.60
2024-02-09T02:51:52.544Z,20.60
2024-02-09T02:54:37.881Z,20.59
2024-02-09T02:57:23.568Z,20.58
2024-02-09T03:00:13.020Z,20.57
2024-02-09T03:02:58.693Z,20.56
2024-02-09T03:05:26.533Z,20.54
2024-02-09T03:08:43.328Z,20.54
2024-02-09T03:10:44.486Z,20.54
2024-02-09T03:13:11.214Z,20.53
2024-02-09T03:15:37.927Z,20.52
2024-02-09T03:18:06.355Z,20.51
2024-02-09T03:20:33.248Z,20.51
2024-02-09T03:23:06.153Z,20.50
2024-02-09T03:25:32.883Z,20.50
2024-02-09T03:27:59.568Z,20.49
2024-02-09T03:30:28.125Z,20.49
2024-02-09T03:32:55.072Z,20.48
2024-02-09T03:35:24.132Z,20.48
2024-02-09T03:37:50.860Z,20.46
2024-02-09T03:40:17.703Z,20.46
2024-02-09T03:42:44.584Z,20.46
2024-02-09T03:45:11.272Z,20.45
2024-02-09T03:47:38.026Z,20.44
2024-02-09T03:50:06.008Z,20.42
2024-02-09T03:52:33.039Z,20.43
2024-02-09T03:54:59.993Z,20.42
2024-02-09T03:57:28.080Z,20.41
2024-02-09T03:59:55.011Z,20.41
2024-02-09T04:02:23.000Z,20.39
2024-02-09T04:04:49.862Z,20.38
2024-02-09T04:07:23.055Z,20.38
2024-02-09T04:10:15.092Z,20.38
2024-02-09T04:12:36.866Z,20.38
2024-02-09T04:15:03.796Z,20.36
2024-02-09T04:17:30.567Z,20.35
2024-02-09T04:19:58.332Z,20.35
2024-02-09T04:22:25.334Z,20.33
2024-02-09T04:24:52.114Z,20.32
2024-02-09T04:27:21.512Z,20.33
2024-02-09T04:29:48.128Z,20.32
2024-02-09T04:32:14.769Z,20.31
2024-02-09T04:34:41.625Z,20.30
2024-02-09T04:37:08.447Z,20.29
2024-02-09T04:39:35.232Z,20.28
2024-02-09T04:42:01.989Z,20.28
2024-02-09T04:44:28.681Z,20.28
2024-02-09T04:46:55.459Z,20.26
2024-02-09T04:49:26.273Z,20.25
2024-02-09T04:51:53.016Z,20.24
2024-02-09T04:54:19.714Z,20.24
2024-02-09T04:56:46.551Z,20.23
2024-02-09T04:59:13.448Z,20.22
2024-02-09T05:01:41.389Z,20.22
2024-02-09T05:04:12.766Z,20.20
2024-02-09T05:06:39.697Z,20.19
2024-02-09T05:09:08.266Z,20.19
2024-02-09T05:11:37.716Z,20.17
2024-02-09T05:14:07.801Z,20.17
2024-02-09T05:16:35.367Z,20.17
2024-02-09T05:19:04.973Z,20.16
2024-02-09T05:21:37.533Z,20.15
2024-02-09T05:24:04.957Z,20.15
2024-02-09T05:26:31.706Z,20.14
2024-02-09T05:28:58.383Z,20.12
2024-02-09T05:31:25.253Z,20.12
2024-02-09T05:33:52.505Z,20.12
2024-02-09T05:36:28.670Z,20.11
2024-02-09T05:38:58.411Z,20.10
2024-02-09T05:41:27.579Z,20.09
2024-02-09T05:43:58.320Z,20.09
2024-02-09T05:46:26.680Z,20.08
2024-02-09T05:48:53.712Z,20.07
2024-02-09T05:51:20.634Z,20.07
2024-02-09T05:53:50.181Z,20.05
2024-02-09T05:56:27.269Z,20.06
2024-02-09T05:58:54.226Z,20.04
2024-02-09T06:01:21.842Z,20.03
2024-02-09T06:03:48.726Z,20.02
2024-02-09T06:06:22.423Z,20.02
2024-02-09T06:08:50.280Z,20.04
2024-02-09T06:11:17.511Z,20.16
2024-02-09T06:13:47.411Z,20.41
2024-02-09T06:16:14.859Z,20.68
2024-02-09T06:18:44.184Z,20.95
2024-02-09T06:21:10.877Z,21.21
2024-02-09T06:23:40.643Z,21.48
2024-02-09T06:26:08.827Z,21.78
2024-02-09T06:28:35.476Z,22.09
2024-02-09T06:31:02.591Z,22.37
2024-02-09T06:33:29.338Z,22.63
2024-02-09T06:35:59.838Z,22.89
2024-02-09T06:38:26.559Z,23.16
2024-02-09T06:40:54.934Z,23.36
2024-02-09T06:43:22.555Z,23.47
2024-02-09T06:45:51.365Z,23.60
2024-02-09T06:48:18.076Z,23.67
2024-02-09T06:50:45.627Z,23.74
2024-02-09T06:53:12.402Z,23.82
2024-02-09T06:55:39.127Z,23.90
2024-02-09T06:58:05.951Z,24.01
2024-02-09T07:00:36.865Z,24.13
2024-02-09T07:03:04.567Z,24.22
2024-02-09T07:05:31.766Z,24.27
2024-02-09T07:07:58.594Z,24.32
2024-02-09T07:10:25.242Z,24.32
2024-02-09T07:12:55.000Z,24.05
2024-02-09T07:15:21.927Z,23.76
2024-02-09T07:17:49.222Z,23.52
2024-02-09T07:20:18.592Z,23.45
2024-02-09T07:22:45.635Z,23.45
2024-02-09T07:25:12.457Z,23.62
2024-02-09T07:27:42.377Z,23.81
2024-02-09T07:30:09.686Z,23.98
2024-02-09T07:32:36.404Z,24.12
2024-02-09T07:35:03.459Z,24.23
2024-02-09T07:37:33.122Z,24.30
2024-02-09T07:40:00.873Z,24.40
2024-02-09T07:42:27.536Z,24.45
2024-02-09T07:44:54.215Z,24.49
2024-02-09T07:47:21.682Z,24.57
2024-02-09T07:49:48.442Z,24.61
2024-02-09T07:52:18.041Z,24.64
2024-02-09T07:54:44.804Z,24.67
2024-02-09T07:57:11.994Z,24.70
2024-02-09T08:02:23.436Z,24.77
2024-02-09T08:05:01.418Z,24.83
2024-02-09T08:07:28.202Z,24.82
2024-02-09T08:09:57.264Z,24.80
2024-02-09T08:12:25.031Z,24.72
2024-02-09T08:14:51.781Z,24.64
2024-02-09T08:17:19.494Z,24.52
2024-02-09T08:19:46.435Z,24.39
2024-02-09T08:22:13.156Z,24.28
2024-02-09T08:24:40.079Z,24.17
2024-02-09T08:27:06.807Z,24.09
2024-02-09T08:29:33.954Z,23.94
2024-02-09T08:32:00.674Z,23.85
2024-02-09T08:34:27.553Z,23.73
2024-02-09T08:36:54.634Z,23.62
2024-02-09T08:39:21.285Z,23.53
2024-02-09T08:41:47.938Z,23.45
2024-02-09T08:44:14.574Z,23.34
2024-02-09T08:46:41.313Z,23.27
2024-02-09T08:49:08.176Z,23.16
2024-02-09T08:51:34.905Z,23.10
2024-02-09T08:54:01.549Z,23.05
2024-02-09T08:56:28.350Z,22.96
2024-02-09T08:58:55.099Z,22.95
2024-02-09T09:01:22.083Z,22.85
2024-02-09T09:03:48.960Z,22.77
2024-02-09T09:06:15.824Z,22.68
2024-02-09T09:08:43.341Z,22.62
2024-02-09T09:11:10.204Z,22.56
2024-02-09T09:13:36.823Z,22.49
2024-02-09T09:16:03.462Z,22.43
2024-02-09T09:18:30.486Z,22.34
2024-02-09T09:20:57.395Z,22.28
2024-02-09T09:23:24.032Z,22.24
2024-02-09T09:25:50.937Z,22.21
2024-02-09T09:28:19.749Z,22.18
2024-02-09T09:30:47.317Z,22.14
2024-02-09T09:33:14.111Z,22.10
2024-02-09T09:35:42.084Z,22.05
2024-02-09T09:38:08.860Z,22.03
2024-02-09T09:40:36.447Z,21.97
2024-02-09T09:43:03.259Z,21.93
2024-02-09T09:45:30.641Z,21.89
2024-02-09T09:47:58.149Z,21.85
2024-02-09T09:50:26.046Z,21.82
2024-02-09T09:52:54.382Z,21.79
2024-02-09T09:55:23.873Z,21.73
2024-02-09T09:57:50.710Z,21.71
2024-02-09T10:00:18.436Z,21.66
2024-02-09T10:02:45.070Z,21.64
2024-02-09T10:05:12.617Z,21.62
2024-02-09T10:07:43.378Z,21.63
2024-02-09T10:10:15.004Z,21.65
2024-02-09T10:12:41.781Z,21.75
2024-02-09T10:15:08.962Z,21.87
2024-02-09T10:17:38.093Z,22.03
2024-02-09T10:20:06.021Z,22.21
2024-02-09T10:22:32.751Z,22.40
2024-02-09T10:24:59.989Z,22.59
2024-02-09T10:27:26.637Z,22.73
2024-02-09T10:29:53.276Z,22.92
2024-02-09T10:32:19.986Z,23.16
2024-02-09T10:34:49.678Z,23.37
2024-02-09T10:37:21.794Z,23.61
2024-02-09T10:39:57.758Z,23.78
2024-02-09T10:42:24.746Z,23.91
2024-02-09T10:44:56.883Z,24.00
2024-02-09T10:47:27.358Z,24.11
2024-02-09T10:49:57.025Z,24.17
2024-02-09T10:52:27.983Z,24.22
2024-02-09T10:54:57.860Z,24.27
2024-02-09T10:57:28.266Z,24.34
2024-02-09T10:59:54.922Z,24.40
2024-02-09T11:02:21.580Z,24.48
2024-02-09T11:04:48.606Z,24.54
2024-02-09T11:07:17.244Z,24.58
2024-02-09T11:09:46.903Z,24.58
2024-02-09T11:12:14.606Z,24.64
2024-02-09T11:14:45.744Z,24.70
2024-02-09T11:17:14.520Z,24.73
2024-02-09T11:19:41.905Z,24.67
2024-02-09T11:22:09.478Z,24.66
2024-02-09T11:24:36.452Z,24.62
2024-02-09T11:27:03.938Z,24.60
2024-02-09T11:29:33.549Z,24.60
2024-02-09T11:32:06.868Z,24.56
2024-02-09T11:34:36.277Z,24.58
2024-02-09T11:37:03.636Z,24.59
2024-02-09T11:39:35.063Z,24.62
2024-02-09T11:42:07.686Z,24.62
2024-02-09T11:44:34.335Z,24.66
2024-02-09T11:47:02.671Z,24.65
2024-02-09T11:49:33.439Z,24.69
2024-02-09T11:52:04.050Z,24.71
2024-02-09T11:54:31.041Z,24.66
2024-02-09T11:57:01.421Z,24.66
2024-02-09T11:59:33.254Z,24.63
2024-02-09T12:01:59.992Z,24.60
2024-02-09T12:04:27.123Z,24.61
2024-02-09T12:06:54.051Z,24.61
2024-02-09T12:09:21.315Z,24.59
2024-02-09T12:11:48.342Z,24.57
2024-02-09T12:14:15.343Z,24.59
2024-02-09T12:16:42.154Z,24.56
2024-02-09T12:19:09.293Z,24.46
2024-02-09T12:21:36.138Z,24.39
2024-02-09T12:24:02.767Z,24.32
2024-02-09T12:26:30.350Z,24.24
2024-02-09T12:28:57.320Z,24.16
2024-02-09T12:31:24.195Z,24.07
2024-02-09T12:33:51.685Z,24.00
2024-02-09T12:36:22.967Z,23.87
2024-02-09T12:38:56.866Z,23.74
2024-02-09T12:41:23.860Z,23.64
2024-02-09T12:44:04.308Z,23.59
2024-02-09T12:46:31.724Z,23.52
2024-02-09T12:48:58.713Z,23.42
2024-02-09T12:51:25.766Z,23.31
2024-02-09T12:53:53.016Z,23.24
2024-02-09T12:56:20.350Z,23.19
2024-02-09T12:58:48.376Z,23.16
2024-02-09T13:01:15.637Z,23.12
2024-02-09T13:03:44.916Z,23.06
2024-02-09T13:06:15.136Z,23.02
2024-02-09T13:08:42.154Z,22.98
2024-02-09T13:11:08.862Z,22.94
2024-02-09T13:13:39.383Z,22.91
2024-02-09T13:16:07.668Z,22.89
2024-02-09T13:18:34.439Z,22.86
2024-02-09T13:21:03.490Z,22.83
2024-02-09T13:23:30.373Z,22.80
2024-02-09T13:26:00.347Z,22.78
2024-02-09T13:28:31.517Z,22.75
2024-02-09T13:30:58.976Z,22.74
2024-02-09T13:33:25.892Z,22.71
2024-02-09T13:35:52.568Z,22.68
2024-02-09T13:38:19.387Z,22.68
2024-02-09T13:40:46.892Z,22.64
2024-02-09T13:43:13.613Z,22.63
2024-02-09T13:45:41.809Z,22.54
2024-02-09T13:48:11.214Z,22.49
2024-02-09T13:50:38.701Z,22.47
2024-02-09T13:53:06.153Z,22.45
2024-02-09T13:55:34.550Z,22.44
2024-02-09T13:58:02.010Z,22.41
2024-02-09T14:00:28.911Z,22.39
2024-02-09T14:02:55.726Z,22.38
2024-02-09T14:05:23.871Z,22.37
2024-02-09T14:07:52.344Z,22.35
2024-02-09T14:10:19.779Z,22.38
2024-02-09T14:12:47.190Z,22.43
2024-02-09T14:15:14.732Z,22.53
2024-02-09T14:17:41.816Z,22.64
2024-02-09T14:20:09.215Z,22.79
2024-02-09T14:22:36.367Z,22.89
2024-02-09T14:25:03.877Z,22.98
2024-02-09T14:27:30.756Z,23.15
2024-02-09T14:29:59.499Z,23.33
2024-02-09T14:32:26.788Z,23.50
2024-02-09T14:34:53.721Z,23.64
2024-02-09T14:37:23.723Z,23.79
2024-02-09T14:39:50.553Z,23.91
2024-02-09T14:42:17.264Z,23.93
2024-02-09T14:44:49.635Z,23.99
2024-02-09T14:47:20.468Z,24.02
2024-02-09T14:49:49.778Z,24.04
2024-02-09T14:52:17.325Z,24.09
2024-02-09T14:54:44.249Z,24.14
2024-02-09T14:57:12.050Z,24.11
2024-02-09T14:59:38.735Z,24.17
2024-02-09T15:02:05.526Z,24.19
2024-02-09T15:04:36.229Z,24.18
2024-02-09T15:07:05.013Z,24.09
2024-02-09T15:09:31.777Z,24.04
2024-02-09T15:12:02.894Z,24.02
2024-02-09T15:14:31.986Z,24.08
2024-02-09T15:17:04.234Z,24.15
2024-02-09T15:19:32.726Z,24.24
2024-02-09T15:21:59.691Z,24.31
2024-02-09T15:24:26.429Z,24.39
2024-02-09T15:26:53.075Z,24.42
2024-02-09T15:29:26.423Z,24.45
2024-02-09T15:31:55.475Z,24.47
2024-02-09T15:34:23.764Z,24.50
2024-02-09T15:36:51.300Z,24.53
2024-02-09T15:39:18.212Z,24.57
2024-02-09T15:41:45.483Z,24.56
2024-02-09T15:44:12.684Z,24.55
2024-02-09T15:46:39.754Z,24.57
2024-02-09T15:49:07.010Z,24.58
2024-02-09T15:51:35.850Z,24.56
2024-02-09T15:54:03.103Z,24.61
2024-02-09T15:56:37.164Z,24.62
2024-02-09T15:59:04.383Z,24.61
2024-02-09T16:01:40.596Z,24.63
2024-02-09T16:04:08.201Z,24.65
2024-02-09T16:06:35.639Z,24.67
2024-02-09T16:09:02.452Z,24.63
2024-02-09T16:11:32.479Z,24.64
2024-02-09T16:14:00.838Z,24.59
2024-02-09T16:16:30.005Z,24.56
2024-02-09T16:18:57.350Z,24.50
2024-02-09T16:21:25.888Z,24.44
2024-02-09T16:23:52.807Z,24.38
2024-02-09T16:26:19.881Z,24.31
2024-02-09T16:28:46.978Z,24.21
2024-02-09T16:31:17.127Z,24.12
2024-02-09T16:33:45.374Z,24.03
2024-02-09T16:36:12.552Z,23.92
2024-02-09T16:38:39.338Z,23.82
2024-02-09T16:41:06.758Z,23.70
2024-02-09T16:43:33.504Z,23.55
2024-02-09T16:46:00.986Z,23.49
2024-02-09T16:48:29.580Z,23.40
2024-02-09T16:50:58.266Z,23.35
2024-02-09T16:53:26.410Z,23.28
2024-02-09T16:55:53.376Z,23.22
2024-02-09T16:58:21.286Z,23.18
2024-02-09T17:00:48.502Z,23.14
2024-02-09T17:03:16.091Z,23.10
2024-02-09T17:05:42.957Z,23.04
2024-02-09T17:08:14.391Z,23.00
2024-02-09T17:10:41.103Z,22.93
2024-02-09T17:13:07.829Z,22.89
2024-02-09T17:15:35.155Z,22.83
2024-02-09T17:18:01.886Z,22.80
2024-02-09T17:20:29.164Z,22.75
2024-02-09T17:22:56.663Z,22.71
2024-02-09T17:25:24.534Z,22.67
2024-02-09T17:27:51.231Z,22.66
2024-02-09T17:30:17.937Z,22.60
2024-02-09T17:32:44.694Z,22.57
2024-02-09T17:35:11.430Z,22.53
2024-02-09T17:37:38.154Z,22.48
2024-02-09T17:40:05.328Z,22.45
2024-02-09T17:42:35.380Z,22.44
2024-02-09T17:45:03.491Z,22.39
2024-02-09T17:47:30.185Z,22.36
2024-02-09T17:49:57.531Z,22.35
2024-02-09T17:52:24.225Z,22.33
2024-02-09T17:54:50.875Z,22.32
2024-02-09T17:57:17.509Z,22.29
2024-02-09T17:59:44.170Z,22.26
2024-02-09T18:02:10.910Z,22.24
2024-02-09T18:04:38.879Z,22.21
2024-02-09T18:07:05.695Z,22.19
2024-02-09T18:09:32.381Z,22.18
2024-02-09T18:11:59.013Z,22.21
2024-02-09T18:14:25.671Z,22.26
2024-02-09T18:16:53.162Z,22.37
2024-02-09T18:19:21.679Z,22.54
2024-02-09T18:21:48.997Z,22.74
2024-02-09T18:24:16.721Z,22.82
2024-02-09T18:27:18.927Z,22.90
2024-02-09T18:29:45.629Z,23.06
2024-02-09T18:32:13.813Z,23.34
2024-02-09T18:34:41.043Z,23.59
2024-02-09T18:37:08.125Z,23.75
2024-02-09T18:39:36.951Z,23.85
2024-02-09T18:42:03.724Z,23.92
2024-02-09T18:44:30.735Z,23.99
2024-02-09T18:46:57.867Z,24.05
2024-02-09T18:49:27.130Z,24.09
2024-02-09T18:52:05.940Z,24.08
2024-02-09T18:54:32.688Z,24.11
2024-02-09T18:56:59.349Z,24.14
2024-02-09T18:59:25.983Z,24.14
2024-02-09T19:01:53.247Z,24.15
2024-02-09T19:04:19.982Z,24.16
2024-02-09T19:06:46.858Z,24.15
2024-02-09T19:09:14.207Z,24.17
2024-02-09T19:11:40.867Z,24.18
2024-02-09T19:14:10.399Z,24.15
2024-02-09T19:16:37.759Z,24.13
2024-02-09T19:19:05.380Z,24.08
2024-02-09T19:21:32.150Z,24.01
2024-02-09T19:23:58.973Z,23.97
2024-02-09T19:26:25.597Z,23.88
2024-02-09T19:28:53.120Z,23.81
2024-02-09T19:31:20.246Z,23.70
2024-02-09T19:33:48.970Z,23.59
2024-02-09T19:36:21.524Z,23.47
2024-02-09T19:38:48.584Z,23.37
2024-02-09T19:41:18.725Z,23.28
2024-02-09T19:43:46.018Z,23.18
2024-02-09T19:46:12.814Z,23.13
2024-02-09T19:48:41.410Z,23.06
2024-02-09T19:51:10.984Z,23.01
2024-02-09T19:53:37.697Z,22.95
2024-02-09T19:56:04.748Z,22.90
2024-02-09T19:58:31.853Z,22.87
2024-02-09T20:00:59.074Z,22.81
2024-02-09T20:03:26.466Z,22.78
2024-02-09T20:05:54.757Z,22.72
2024-02-09T20:08:21.769Z,22.70
2024-02-09T20:10:49.485Z,22.63
2024-02-09T20:13:18.300Z,22.59
2024-02-09T20:15:45.395Z,22.53
2024-02-09T20:18:12.237Z,22.50
2024-02-09T20:20:39.663Z,22.45
2024-02-09T20:23:06.522Z,22.42
2024-02-09T20:25:33.377Z,22.40
2024-02-09T20:28:00.194Z,22.34
2024-02-09T20:30:26.898Z,22.29
2024-02-09T20:32:57.842Z,22.27
2024-02-09T20:35:25.995Z,22.22
2024-02-09T20:37:52.970Z,22.21
2024-02-09T20:40:19.913Z,22.19
2024-02-09T20:42:46.787Z,22.18
2024-02-09T20:45:13.590Z,22.15
2024-02-09T20:47:44.289Z,22.13
2024-02-09T20:50:16.727Z,22.10
2024-02-09T20:52:50.865Z,22.08
2024-02-09T20:55:21.462Z,22.06
2024-02-09T20:57:49.997Z,22.03
2024-02-09T21:00:22.071Z,21.98
2024-02-09T21:02:53.460Z,21.96
2024-02-09T21:05:21.306Z,21.93
2024-02-09T21:07:49.004Z,21.90
2024-02-09T21:10:17.201Z,21.87
2024-02-09T21:12:47.731Z,21.86
2024-02-09T21:15:14.749Z,21.83
2024-02-09T21:17:41.581Z,21.81
2024-02-09T21:20:13.461Z,21.79
2024-02-09T21:22:40.358Z,21.77
2024-02-09T21:25:07.893Z,21.75
2024-02-09T21:27:34.768Z,21.73
2024-02-09T21:30:08.223Z,21.71
2024-02-09T21:32:36.634Z,21.69
2024-02-09T21:35:06.667Z,21.67
2024-02-09T21:37:34.376Z,21.65
2024-02-09T21:40:01.015Z,21.63
2024-02-09T21:42:30.807Z,21.60
2024-02-09T21:45:00.366Z,21.59
2024-02-09T21:47:30.144Z,21.57
2024-02-09T21:49:58.591Z,21.54
2024-02-09T21:52:25.376Z,21.53
2024-02-09T21:54:52.965Z,21.50
2024-02-09T21:57:22.343Z,21.47
2024-02-09T21:59:49.024Z,21.45
2024-02-09T22:02:20.822Z,21.44
2024-02-09T22:04:47.944Z,21.42
2024-02-09T22:07:14.737Z,21.41
2024-02-09T22:09:41.739Z,21.38
2024-02-09T22:12:08.638Z,21.37
2024-02-09T22:14:36.823Z,21.34
2024-02-09T22:17:07.524Z,21.31
2024-02-09T22:19:35.509Z,21.30
2024-02-09T22:22:02.926Z,21.28
2024-02-09T22:24:29.776Z,21.26
2024-02-09T22:26:57.524Z,21.24
2024-02-09T22:29:28.305Z,21.22
2024-02-09T22:31:55.037Z,21.21
2024-02-09T22:34:23.327Z,21.19
2024-02-09T22:36:51.710Z,21.18
2024-02-09T22:39:21.696Z,21.16
2024-02-09T22:41:51.724Z,21.15
2024-02-09T22:44:20.329Z,21.13
2024-02-09T22:46:47.901Z,21.10
2024-02-09T22:49:17.581Z,21.08
2024-02-09T22:51:44.259Z,21.07
2024-02-09T22:54:10.905Z,21.05
2024-02-09T22:56:40.723Z,21.04
2024-02-09T22:59:07.491Z,21.02
2024-02-09T23:01:34.227Z,20.98
2024-02-09T23:04:01.359Z,20.97
2024-02-09T23:06:31.789Z,20.95
2024-02-09T23:08:59.138Z,20.93
2024-02-09T23:11:27.366Z,20.94
2024-02-09T23:13:56.451Z,20.92
2024-02-09T23:16:24.382Z,20.90
2024-02-09T23:18:57.164Z,20.88
2024-02-09T23:21:24.478Z,20.87
2024-02-09T23:23:51.195Z,20.86
2024-02-09T23:26:18.043Z,20.83
2024-02-09T23:28:44.899Z,20.83
2024-02-09T23:31:11.650Z,20.80
2024-02-09T23:33:38.406Z,20.78
2024-02-09T23:36:05.388Z,20.78
2024-02-09T23:38:32.007Z,20.76
2024-02-09T23:40:58.805Z,20.75
2024-02-09T23:43:25.557Z,20.74
2024-02-09T23:45:54.442Z,20.73
2024-02-09T23:48:24.144Z,20.71
2024-02-09T23:50:52.182Z,20.70
2024-02-09T23:53:19.366Z,20.68
2024-02-09T23:55:46.151Z,20.67
2024-02-09T23:58:13.009Z,20.66
